Time;durP1;ratioP1;P1;durP2;ratioP2;P2;SDS_P1;SDS_P2;PMS_P1;PMS_P2;Temp;Humidity;BMP_temperature;BMP_pressure;BME280_temperature;BME280_humidity;BME280_pressure;Samples;Min_cycle;Max_cycle;Signal;HPM_P1;HPM_P2
2024/02/15 00:01:52;;;;;;;2.15;1.00;;;;;;;;;;10365597;28;20045;-82
2024/02/15 00:06:55;;;;;;;1.08;0.90;;;;;;;;;;10367779;28;20061;-82
2024/02/15 00:12:00;;;;;;;1.70;0.85;;;;;;;;;;10366414;28;20055;-82
2024/02/15 00:17:04;;;;;;;1.15;0.80;;;;;;;;;;10380630;28;20042;-83
2024/02/15 00:22:08;;;;;;;2.20;1.10;;;;;;;;;;10376097;28;20129;-83
2024/02/15 00:27:12;;;;;;;3.22;1.63;;;;;;;;;;10381890;28;20297;-84
2024/02/15 00:32:16;;;;;;;2.67;1.20;;;;;;;;;;10383318;28;20042;-83
2024/02/15 00:37:19;;;;;;;2.22;1.10;;;;;;;;;;10362507;28;20046;-83
2024/02/15 00:42:24;;;;;;;1.75;1.00;;;;;;;;;;10343979;28;20066;-82
2024/02/15 00:47:28;;;;;;;2.53;1.30;;;;;;;;;;10350044;28;20042;-83
2024/02/15 00:52:31;;;;;;;3.45;1.73;;;;;;;;;;10353798;28;20062;-84
2024/02/15 00:57:36;;;;;;;2.55;1.52;;;;;;;;;;10341353;28;20050;-82
2024/02/15 01:02:40;;;;;;;1.70;1.60;;;;;;;;;;10339789;28;20050;-82
2024/02/15 01:07:43;;;;;;;1.67;1.17;;;;;;;;;;10348081;28;20073;-82
2024/02/15 01:12:48;;;;;;;1.75;1.02;;;;;;;;;;10346204;28;20383;-83
2024/02/15 01:17:51;;;;;;;1.98;0.73;;;;;;;;;;10341340;28;20046;-83
2024/02/15 01:22:55;;;;;;;2.38;0.80;;;;;;;;;;10329116;28;20137;-83
2024/02/15 01:28:01;;;;;;;0.80;0.80;;;;;;;;;;10333589;28;20041;-82
2024/02/15 01:33:05;;;;;;;1.20;0.82;;;;;;;;;;10346068;28;20052;-82
2024/02/15 01:38:08;;;;;;;1.80;0.60;;;;;;;;;;10349083;28;20041;-83
2024/02/15 01:43:13;;;;;;;1.10;0.60;;;;;;;;;;10349228;28;20049;-82
2024/02/15 01:48:17;;;;;;;1.50;0.80;;;;;;;;;;10373013;28;20046;-83
2024/02/15 01:53:21;;;;;;;0.85;0.70;;;;;;;;;;10376470;28;20076;-83
2024/02/15 01:58:27;;;;;;;1.02;0.80;;;;;;;;;;10375657;28;20046;-83
2024/02/15 02:03:33;;;;;;;1.25;0.88;;;;;;;;;;10379069;28;20049;-84
2024/02/15 02:08:36;;;;;;;1.60;1.15;;;;;;;;;;10369493;28;20088;-83
2024/02/15 02:13:41;;;;;;;2.88;1.00;;;;;;;;;;10375507;28;20500;-83
2024/02/15 02:18:45;;;;;;;2.03;0.98;;;;;;;;;;10368765;28;20050;-82
2024/02/15 02:23:53;;;;;;;1.85;1.08;;;;;;;;;;10362072;28;20125;-82
2024/02/15 02:28:59;;;;;;;0.80;0.70;;;;;;;;;;10385182;28;20316;-83
2024/02/15 02:34:03;;;;;;;;;;;;;;;;;;10384691;28;20057;-84
2024/02/15 02:39:07;;;;;;;1.58;0.88;;;;;;;;;;10393776;28;19984;-83
2024/02/15 02:44:11;;;;;;;0.73;0.60;;;;;;;;;;10366374;28;20050;-82
2024/02/15 02:49:15;;;;;;;2.55;0.60;;;;;;;;;;10350523;28;20056;-82
2024/02/15 02:54:18;;;;;;;1.65;0.77;;;;;;;;;;10363131;28;20125;-83
2024/02/15 02:59:23;;;;;;;3.13;0.88;;;;;;;;;;10353597;28;20042;-82
2024/02/15 03:04:27;;;;;;;1.20;0.68;;;;;;;;;;10362254;28;20696;-82
2024/02/15 03:09:31;;;;;;;1.25;0.77;;;;;;;;;;10351776;28;20700;-82
2024/02/15 03:14:36;;;;;;;1.00;0.73;;;;;;;;;;10360025;28;20048;-83
2024/02/15 03:19:40;;;;;;;1.10;0.70;;;;;;;;;;10368039;28;20037;-83
2024/02/15 03:24:44;;;;;;;1.23;0.77;;;;;;;;;;10359913;28;20117;-86
2024/02/15 03:29:48;;;;;;;0.98;0.80;;;;;;;;;;10365346;28;20696;-83
2024/02/15 03:34:54;;;;;;;0.93;0.70;;;;;;;;;;10351835;28;20064;-84
2024/02/15 03:39:57;;;;;;;1.55;1.00;;;;;;;;;;10369193;28;20585;-84
2024/02/15 03:45:02;;;;;;;2.42;1.00;;;;;;;;;;10347811;28;20683;-83
2024/02/15 03:50:09;;;;;;;1.85;0.90;;;;;;;;;;10362412;28;20072;-83
2024/02/15 03:55:13;;;;;;;2.30;1.10;;;;;;;;;;10368577;28;20332;-83
2024/02/15 04:00:20;;;;;;;2.17;1.10;;;;;;;;;;10357860;28;20042;-83
2024/02/15 04:05:24;;;;;;;1.88;0.90;;;;;;;;;;10366321;28;20856;-82
2024/02/15 04:10:27;;;;;;;2.17;0.88;;;;;;;;;;10360638;28;20057;-81
2024/02/15 04:15:33;;;;;;;2.78;1.02;;;;;;;;;;10365810;28;20060;-82
2024/02/15 04:20:36;;;;;;;2.88;1.17;;;;;;;;;;10360447;28;20072;-82
2024/02/15 04:25:40;;;;;;;2.13;0.80;;;;;;;;;;10367740;28;20068;-83
2024/02/15 04:30:46;;;;;;;2.63;0.90;;;;;;;;;;10366077;28;20511;-83
2024/02/15 04:35:51;;;;;;;3.60;0.80;;;;;;;;;;10374350;28;20677;-83
2024/02/15 04:40:54;;;;;;;2.13;0.85;;;;;;;;;;10360649;28;20054;-83
2024/02/15 04:46:00;;;;;;;2.42;1.05;;;;;;;;;;10355843;28;20037;-82
2024/02/15 04:51:03;;;;;;;2.35;0.90;;;;;;;;;;10382026;28;20050;-83
2024/02/15 04:56:13;;;;;;;2.92;0.90;;;;;;;;;;10354249;28;20038;-82
2024/02/15 05:01:18;;;;;;;1.83;0.88;;;;;;;;;;10348766;28;20077;-83
2024/02/15 05:06:22;;;;;;;1.70;0.90;;;;;;;;;;10332570;28;20069;-82
2024/02/15 05:11:25;;;;;;;1.48;0.85;;;;;;;;;;10365878;23;20669;-75
2024/02/15 05:16:31;;;;;;;2.08;1.08;;;;;;;;;;10453644;28;20087;-73
2024/02/15 05:21:34;;;;;;;1.63;0.83;;;;;;;;;;10409584;28;20536;-73
2024/02/15 05:26:37;;;;;;;2.50;1.02;;;;;;;;;;10390594;28;20618;-73
2024/02/15 05:31:42;;;;;;;3.92;1.13;;;;;;;;;;10414720;28;20828;-73
2024/02/15 05:36:45;;;;;;;2.42;1.10;;;;;;;;;;10408513;28;20136;-73
2024/02/15 05:41:48;;;;;;;1.38;0.93;;;;;;;;;;10412710;28;20035;-73
2024/02/15 05:46:53;;;;;;;0.93;0.70;;;;;;;;;;10389836;28;20073;-73
2024/02/15 05:51:56;;;;;;;2.42;0.98;;;;;;;;;;10403595;28;20045;-73
2024/02/15 05:57:00;;;;;;;1.25;0.80;;;;;;;;;;10413780;28;20045;-73
2024/02/15 06:02:07;;;;;;;1.77;0.70;;;;;;;;;;10419353;28;20118;-72
2024/02/15 06:07:11;;;;;;;1.65;0.80;;;;;;;;;;10408773;28;20048;-73
2024/02/15 06:12:14;;;;;;;2.38;0.82;;;;;;;;;;10416087;28;20052;-73
2024/02/15 06:17:19;;;;;;;1.67;1.30;;;;;;;;;;10415091;28;20052;-73
2024/02/15 06:22:22;;;;;;;2.25;0.90;;;;;;;;;;10411880;28;20597;-73
2024/02/15 06:27:25;;;;;;;3.25;0.93;;;;;;;;;;10424041;28;20056;-73
2024/02/15 06:43:12;;;;;;;1.08;0.73;;;;;;;;;;10417927;28;20059;-73
2024/02/15 06:48:16;;;;;;;1.40;0.80;;;;;;;;;;10420922;28;20140;-73
2024/02/15 06:53:20;;;;;;;2.53;1.50;;;;;;;;;;10420614;28;20470;-73
2024/02/15 06:58:23;;;;;;;2.90;1.30;;;;;;;;;;10412012;28;20064;-73
2024/02/15 07:03:29;;;;;;;4.72;1.38;;;;;;;;;;10422409;28;20247;-72
2024/02/15 07:08:33;;;;;;;2.22;1.15;;;;;;;;;;10414574;28;20550;-73
2024/02/15 07:13:37;;;;;;;2.17;1.25;;;;;;;;;;10396555;28;20465;-73
2024/02/15 07:18:41;;;;;;;1.92;1.40;;;;;;;;;;10421840;28;20133;-73
2024/02/15 07:23:46;;;;;;;2.35;1.60;;;;;;;;;;10417240;28;20119;-73
2024/02/15 07:28:50;;;;;;;1.92;1.38;;;;;;;;;;10416241;28;20490;-73
2024/02/15 07:33:55;;;;;;;3.03;1.95;;;;;;;;;;10418108;28;20053;-73
2024/02/15 07:39:00;;;;;;;2.08;1.45;;;;;;;;;;10416002;28;20122;-73
2024/02/15 07:44:04;;;;;;;6.25;2.40;;;;;;;;;;10422855;28;20066;-73
2024/02/15 07:49:09;;;;;;;3.30;1.85;;;;;;;;;;10414022;28;20593;-73
2024/02/15 07:54:12;;;;;;;2.75;1.73;;;;;;;;;;10413312;28;20541;-73
2024/02/15 07:59:16;;;;;;;4.28;1.85;;;;;;;;;;10417221;28;20076;-73
2024/02/15 08:04:21;;;;;;;2.47;1.70;;;;;;;;;;10415035;28;20410;-73
2024/02/15 08:09:25;;;;;;;2.17;1.65;;;;;;;;;;10417951;28;20053;-73
2024/02/15 08:14:28;;;;;;;2.75;1.70;;;;;;;;;;10411883;28;20057;-73
2024/02/15 08:19:33;;;;;;;2.90;1.75;;;;;;;;;;10392152;28;20387;-73
2024/02/15 08:24:36;;;;;;;3.22;1.73;;;;;;;;;;10388892;28;20040;-73
2024/02/15 08:29:39;;;;;;;3.22;1.75;;;;;;;;;;10409730;28;20037;-73
2024/02/15 08:34:44;;;;;;;1.88;1.52;;;;;;;;;;10411893;28;20065;-73
2024/02/15 08:39:47;;;;;;;3.38;1.70;;;;;;;;;;10410395;28;20038;-73
2024/02/15 08:44:51;;;;;;;3.25;1.42;;;;;;;;;;10419178;28;20057;-73
2024/02/15 08:49:56;;;;;;;2.97;1.50;;;;;;;;;;10423008;28;20083;-73
2024/02/15 08:55:00;;;;;;;4.03;2.17;;;;;;;;;;10421046;28;20052;-73
2024/02/15 09:00:09;;;;;;;1.90;1.27;;;;;;;;;;10419709;28;20447;-73
2024/02/15 09:05:14;;;;;;;3.80;2.15;;;;;;;;;;10422286;28;20081;-73
2024/02/15 09:10:18;;;;;;;1.92;1.63;;;;;;;;;;10413571;28;20384;-73
2024/02/15 09:15:22;;;;;;;2.97;1.50;;;;;;;;;;10425145;28;20048;-73
2024/02/15 09:20:28;;;;;;;1.90;1.23;;;;;;;;;;10415714;28;20504;-73
2024/02/15 09:25:31;;;;;;;2.78;1.20;;;;;;;;;;10413152;28;20045;-73
2024/02/15 09:30:35;;;;;;;2.53;1.48;;;;;;;;;;10399952;28;20075;-73
2024/02/15 09:35:39;;;;;;;2.40;1.60;;;;;;;;;;10417014;28;20486;-73
2024/02/15 09:40:43;;;;;;;2.17;1.55;;;;;;;;;;10417872;28;20477;-73
2024/02/15 09:45:48;;;;;;;3.90;1.40;;;;;;;;;;10396257;28;20036;-73
2024/02/15 09:50:55;;;;;;;2.30;1.40;;;;;;;;;;10422523;28;20048;-73
2024/02/15 09:56:04;;;;;;;1.40;0.75;;;;;;;;;;10426419;28;20064;-73
2024/02/15 10:01:10;;;;;;;3.00;1.02;;;;;;;;;;10426506;28;20052;-73
2024/02/15 10:06:14;;;;;;;2.17;1.35;;;;;;;;;;10417734;28;20049;-73
2024/02/15 10:11:20;;;;;;;1.45;0.93;;;;;;;;;;10416946;28;20558;-73
2024/02/15 10:16:25;;;;;;;3.47;1.10;;;;;;;;;;10424728;28;20148;-73
2024/02/15 10:21:31;;;;;;;1.27;0.93;;;;;;;;;;10419002;28;20115;-73
2024/02/15 10:26:35;;;;;;;2.65;1.10;;;;;;;;;;10419664;28;20057;-73
2024/02/15 10:31:40;;;;;;;2.42;1.45;;;;;;;;;;10420161;28;20134;-73
2024/02/15 10:36:45;;;;;;;3.00;1.27;;;;;;;;;;10416634;28;20043;-73
2024/02/15 10:41:50;;;;;;;3.15;1.15;;;;;;;;;;10409669;28;20029;-73
2024/02/15 10:46:54;;;;;;;3.30;1.10;;;;;;;;;;10427987;28;20092;-73
2024/02/15 10:52:03;;;;;;;2.08;1.20;;;;;;;;;;10401085;28;20047;-73
2024/02/15 10:57:08;;;;;;;1.15;0.90;;;;;;;;;;10426782;28;20041;-73
2024/02/15 11:02:29;;;;;;;2.35;1.10;;;;;;;;;;10422059;28;20046;-73
2024/02/15 11:07:34;;;;;;;1.52;0.80;;;;;;;;;;10414225;28;20443;-73
2024/02/15 11:12:38;;;;;;;3.38;1.00;;;;;;;;;;10419881;28;20037;-73
2024/02/15 11:17:54;;;;;;;3.50;1.20;;;;;;;;;;10405063;28;20280;-73
2024/02/15 11:22:59;;;;;;;5.33;1.50;;;;;;;;;;10422262;28;20041;-73
2024/02/15 11:28:36;;;;;;;2.60;0.93;;;;;;;;;;10408399;28;20071;-73
2024/02/15 11:33:40;;;;;;;1.17;0.80;;;;;;;;;;10421529;28;20045;-73
2024/02/15 11:38:44;;;;;;;3.40;1.00;;;;;;;;;;10404886;28;20053;-73
2024/02/15 11:43:59;;;;;;;1.25;0.80;;;;;;;;;;10416644;28;20517;-73
2024/02/15 11:49:03;;;;;;;2.63;1.00;;;;;;;;;;10406060;28;20041;-73
2024/02/15 11:54:11;;;;;;;2.58;1.02;;;;;;;;;;10417094;28;20521;-73
2024/02/15 11:59:28;;;;;;;1.92;1.08;;;;;;;;;;10411763;28;20045;-73
2024/02/15 12:20:41;;;;;;;1.08;0.60;;;;;;;;;;10401077;28;20135;-73
2024/02/15 12:25:52;;;;;;;2.20;1.05;;;;;;;;;;10417739;28;20049;-73
2024/02/15 12:30:57;;;;;;;1.70;0.75;;;;;;;;;;10406133;28;20045;-73
2024/02/15 12:36:06;;;;;;;1.73;0.60;;;;;;;;;;10410890;28;20052;-73
2024/02/15 12:41:20;;;;;;;1.38;0.60;;;;;;;;;;10411758;28;20124;-73
2024/02/15 12:46:23;;;;;;;1.70;0.65;;;;;;;;;;10409627;28;20629;-72
2024/02/15 12:51:32;;;;;;;1.35;0.70;;;;;;;;;;10403957;28;20042;-73
2024/02/15 12:56:39;;;;;;;2.03;0.65;;;;;;;;;;10388785;28;20040;-73
2024/02/15 13:01:42;;;;;;;;;;;;;;;;;;10401724;28;20126;-73
2024/02/15 13:06:46;;;;;;;0.63;0.40;;;;;;;;;;10404403;28;20001;-73
2024/02/15 13:11:52;;;;;;;1.83;0.60;;;;;;;;;;10409554;28;20033;-73
2024/02/15 13:16:57;;;;;;;2.03;0.75;;;;;;;;;;10401155;28;20789;-73
2024/02/15 13:22:00;;;;;;;2.08;0.70;;;;;;;;;;10416152;28;20120;-73
2024/02/15 13:27:05;;;;;;;1.10;0.70;;;;;;;;;;10418795;28;20049;-73
2024/02/15 13:32:12;;;;;;;1.20;0.93;;;;;;;;;;10418274;28;20065;-73
2024/02/15 13:37:17;;;;;;;4.75;1.00;;;;;;;;;;10416599;28;20137;-73
2024/02/15 13:42:22;;;;;;;2.93;1.13;;;;;;;;;;10421857;28;20095;-73
2024/02/15 13:47:25;;;;;;;0.90;0.70;;;;;;;;;;10415194;28;20333;-72
2024/02/15 13:52:28;;;;;;;2.38;0.88;;;;;;;;;;10413814;28;20120;-73
2024/02/15 13:57:32;;;;;;;2.95;1.27;;;;;;;;;;10411559;28;20049;-73
2024/02/15 14:02:36;;;;;;;1.75;0.90;;;;;;;;;;10413879;28;20045;-72
2024/02/15 14:07:39;;;;;;;2.58;1.10;;;;;;;;;;10423946;28;20041;-72
2024/02/15 14:12:44;;;;;;;3.08;1.10;;;;;;;;;;10427330;28;20467;-73
2024/02/15 14:17:48;;;;;;;1.27;0.73;;;;;;;;;;10416977;28;20183;-72
2024/02/15 14:22:55;;;;;;;2.10;1.00;;;;;;;;;;10416186;28;20041;-72
2024/02/15 14:28:00;;;;;;;1.27;0.70;;;;;;;;;;10409517;28;20049;-73
2024/02/15 14:33:04;;;;;;;1.60;0.60;;;;;;;;;;10425896;28;20041;-72
2024/02/15 14:38:10;;;;;;;1.63;0.80;;;;;;;;;;10415549;28;20487;-73
2024/02/15 14:43:15;;;;;;;2.55;1.15;;;;;;;;;;10413195;28;20128;-73
2024/02/15 14:48:23;;;;;;;4.00;1.67;;;;;;;;;;10411786;28;20115;-72
2024/02/15 14:53:27;;;;;;;3.17;1.27;;;;;;;;;;10407868;28;20698;-72
2024/02/15 14:58:32;;;;;;;2.33;1.20;;;;;;;;;;10405331;28;20041;-73
2024/02/15 15:03:37;;;;;;;3.45;1.30;;;;;;;;;;10430439;28;20487;-73
2024/02/15 15:14:04;;;;;;;2.85;1.75;;;;;;;;;;10415923;28;20137;-73
2024/02/15 15:19:07;;;;;;;3.97;1.80;;;;;;;;;;10404967;28;20460;-73
2024/02/15 15:24:10;;;;;;;1.98;1.10;;;;;;;;;;10410676;28;20727;-73
2024/02/15 15:29:16;;;;;;;2.22;1.25;;;;;;;;;;10418961;28;20064;-73
2024/02/15 15:34:19;;;;;;;2.90;1.10;;;;;;;;;;10417787;28;20041;-73
2024/02/15 15:39:24;;;;;;;1.83;0.82;;;;;;;;;;10426225;28;20049;-73
2024/02/15 15:44:30;;;;;;;1.75;0.90;;;;;;;;;;10415008;28;20392;-73
2024/02/15 15:49:34;;;;;;;3.53;1.48;;;;;;;;;;10418207;28;20062;-73
2024/02/15 15:54:41;;;;;;;4.97;1.20;;;;;;;;;;10421425;28;20572;-73
2024/02/15 15:59:46;;;;;;;3.00;1.17;;;;;;;;;;10410700;28;20487;-74
2024/02/15 16:04:49;;;;;;;2.33;1.08;;;;;;;;;;10420275;28;20421;-73
2024/02/15 16:09:55;;;;;;;1.00;0.82;;;;;;;;;;10423943;28;20045;-73
2024/02/15 16:14:59;;;;;;;1.60;0.80;;;;;;;;;;10412122;28;20051;-73
2024/02/15 16:20:05;;;;;;;1.90;0.60;;;;;;;;;;10425009;28;20119;-73
2024/02/15 16:25:10;;;;;;;2.97;1.00;;;;;;;;;;10404751;28;20037;-73
2024/02/15 16:30:15;;;;;;;2.28;1.23;;;;;;;;;;10401253;28;20056;-73
2024/02/15 16:35:19;;;;;;;2.22;0.90;;;;;;;;;;10399618;28;20132;-73
2024/02/15 16:40:23;;;;;;;1.90;1.00;;;;;;;;;;10404710;28;20041;-73
2024/02/15 16:45:27;;;;;;;0.77;0.60;;;;;;;;;;10415223;28;20379;-73
2024/02/15 16:50:31;;;;;;;2.85;0.73;;;;;;;;;;10413881;28;20080;-73
2024/02/15 16:55:35;;;;;;;1.30;0.90;;;;;;;;;;10409292;28;20053;-73
2024/02/15 17:00:40;;;;;;;1.90;0.77;;;;;;;;;;10405367;28;20475;-73
2024/02/15 17:05:43;;;;;;;3.47;1.50;;;;;;;;;;10407327;28;20052;-73
2024/02/15 17:10:46;;;;;;;2.70;1.23;;;;;;;;;;10399284;28;20136;-73
2024/02/15 17:15:51;;;;;;;3.17;1.70;;;;;;;;;;10396196;28;20098;-73
2024/02/15 17:20:54;;;;;;;3.97;1.40;;;;;;;;;;10409943;28;20068;-73
2024/02/15 17:25:57;;;;;;;3.28;1.25;;;;;;;;;;10408258;28;20499;-73
2024/02/15 17:31:07;;;;;;;2.22;1.30;;;;;;;;;;10407561;28;20607;-73
2024/02/15 17:36:10;;;;;;;4.57;1.95;;;;;;;;;;10404730;28;20070;-73
2024/02/15 17:41:14;;;;;;;3.80;1.88;;;;;;;;;;10408864;28;20076;-73
2024/02/15 17:46:18;;;;;;;3.03;1.70;;;;;;;;;;10413613;28;20043;-73
2024/02/15 17:51:22;;;;;;;2.63;1.20;;;;;;;;;;10404849;28;20053;-73
2024/02/15 17:56:25;;;;;;;1.38;0.80;;;;;;;;;;10410074;28;20038;-73
2024/02/15 18:01:31;;;;;;;1.10;0.70;;;;;;;;;;10408290;28;20053;-73
2024/02/15 18:06:34;;;;;;;3.75;1.15;;;;;;;;;;10407013;28;20030;-73
2024/02/15 18:11:38;;;;;;;1.05;0.95;;;;;;;;;;10412236;28;20052;-73
2024/02/15 18:16:48;;;;;;;2.65;1.27;;;;;;;;;;10419539;28;20041;-73
2024/02/15 18:21:51;;;;;;;2.17;1.30;;;;;;;;;;10409094;28;20045;-73
2024/02/15 18:26:55;;;;;;;3.20;1.15;;;;;;;;;;10409090;28;20033;-73
2024/02/15 18:31:59;;;;;;;2.45;1.40;;;;;;;;;;10417135;28;20053;-73
2024/02/15 18:37:02;;;;;;;2.83;1.40;;;;;;;;;;10413528;28;20045;-73
2024/02/15 18:42:06;;;;;;;2.22;1.02;;;;;;;;;;10407668;28;20059;-73
2024/02/15 18:47:11;;;;;;;3.38;1.02;;;;;;;;;;10406269;28;20056;-73
2024/02/15 18:52:15;;;;;;;3.08;1.52;;;;;;;;;;10411973;28;20081;-74
2024/02/15 18:57:20;;;;;;;3.05;1.67;;;;;;;;;;10403825;28;20030;-73
2024/02/15 19:02:26;;;;;;;2.55;1.30;;;;;;;;;;10411664;28;20384;-74
2024/02/15 19:07:29;;;;;;;2.53;1.35;;;;;;;;;;10389179;28;20048;-74
2024/02/15 19:12:33;;;;;;;1.98;1.20;;;;;;;;;;10408947;28;20049;-73
2024/02/15 19:17:39;;;;;;;2.13;1.20;;;;;;;;;;10407784;28;20095;-74
2024/02/15 19:22:44;;;;;;;2.95;1.40;;;;;;;;;;10388318;28;20482;-74
2024/02/15 19:27:47;;;;;;;2.03;0.90;;;;;;;;;;10402060;28;20044;-74
2024/02/15 19:32:52;;;;;;;1.88;1.05;;;;;;;;;;10400089;28;20055;-73
2024/02/15 19:37:57;;;;;;;2.03;0.70;;;;;;;;;;10403067;28;20072;-74
2024/02/15 19:43:00;;;;;;;1.23;0.80;;;;;;;;;;10384914;28;20788;-74
2024/02/15 19:48:09;;;;;;;1.98;1.15;;;;;;;;;;10397648;28;20045;-74
2024/02/15 19:53:13;;;;;;;2.88;1.10;;;;;;;;;;10399035;28;20063;-74
2024/02/15 19:58:17;;;;;;;2.47;1.30;;;;;;;;;;10397454;28;20053;-73
2024/02/15 20:03:27;;;;;;;4.13;1.50;;;;;;;;;;10405261;28;20057;-73
2024/02/15 20:08:31;;;;;;;4.07;1.63;;;;;;;;;;10406574;28;20041;-73
2024/02/15 20:13:34;;;;;;;2.90;1.45;;;;;;;;;;10383785;28;20061;-74
2024/02/15 20:18:40;;;;;;;3.78;1.60;;;;;;;;;;10402862;28;20072;-74
2024/02/15 20:23:45;;;;;;;4.10;1.50;;;;;;;;;;10395248;28;20446;-73
2024/02/15 20:28:49;;;;;;;4.27;1.20;;;;;;;;;;10392038;28;20053;-73
2024/02/15 20:33:54;;;;;;;3.17;1.20;;;;;;;;;;10400451;28;20053;-73
2024/02/15 20:38:59;;;;;;;1.95;0.90;;;;;;;;;;10401526;28;20148;-73
2024/02/15 20:44:02;;;;;;;2.40;0.95;;;;;;;;;;10413678;28;20128;-73
2024/02/15 20:49:07;;;;;;;1.75;0.90;;;;;;;;;;10417482;28;20045;-73
2024/02/15 20:54:10;;;;;;;1.77;1.05;;;;;;;;;;10418124;28;20067;-74
2024/02/15 20:59:14;;;;;;;1.92;1.00;;;;;;;;;;10421122;28;20180;-74
2024/02/15 21:04:19;;;;;;;1.63;1.02;;;;;;;;;;10417299;28;20073;-74
2024/02/15 21:09:22;;;;;;;1.67;0.88;;;;;;;;;;10421446;28;20041;-74
2024/02/15 21:14:26;;;;;;;5.90;1.30;;;;;;;;;;10419761;28;20040;-73
2024/02/15 21:19:31;;;;;;;3.90;1.40;;;;;;;;;;10424429;28;20044;-74
2024/02/15 21:24:36;;;;;;;3.40;1.60;;;;;;;;;;10389087;28;20126;-73
2024/02/15 21:29:41;;;;;;;4.35;1.55;;;;;;;;;;10410331;28;20041;-74
2024/02/15 21:34:46;;;;;;;3.65;1.10;;;;;;;;;;10426806;28;20048;-74
2024/02/15 21:39:49;;;;;;;1.13;1.00;;;;;;;;;;10424304;28;20065;-74
2024/02/15 21:44:54;;;;;;;4.30;1.30;;;;;;;;;;10397941;28;20060;-74
2024/02/15 21:49:59;;;;;;;1.23;1.00;;;;;;;;;;10418105;28;20041;-74
2024/02/15 21:55:04;;;;;;;;;;;;;;;;;;10403687;28;20544;-74
2024/02/15 22:00:10;;;;;;;1.77;1.13;;;;;;;;;;10389891;28;20024;-74
2024/02/15 22:05:15;;;;;;;2.92;1.20;;;;;;;;;;10406467;28;20060;-73
2024/02/15 22:10:18;;;;;;;4.65;2.75;;;;;;;;;;10420127;28;20076;-74
2024/02/15 22:15:21;;;;;;;9.43;5.75;;;;;;;;;;10415113;28;20041;-74
2024/02/15 22:20:26;;;;;;;7.25;4.00;;;;;;;;;;10410613;28;20497;-74
2024/02/15 22:25:29;;;;;;;5.13;2.95;;;;;;;;;;10417257;28;20551;-74
2024/02/15 22:30:33;;;;;;;4.35;2.70;;;;;;;;;;10411757;28;20045;-74
2024/02/15 22:35:38;;;;;;;4.82;2.70;;;;;;;;;;10415804;28;20037;-74
2024/02/15 22:40:42;;;;;;;2.20;1.95;;;;;;;;;;10440542;28;20050;-74
2024/02/15 22:45:46;;;;;;;3.50;2.22;;;;;;;;;;10419800;28;20053;-74
2024/02/15 22:50:51;;;;;;;5.45;2.30;;;;;;;;;;10410208;28;20044;-74
2024/02/15 22:55:55;;;;;;;2.10;1.50;;;;;;;;;;10416899;28;20140;-73
2024/02/15 23:00:58;;;;;;;1.73;1.15;;;;;;;;;;10418053;28;20044;-74
2024/02/15 23:06:05;;;;;;;2.65;1.08;;;;;;;;;;10411756;28;20029;-73
2024/02/15 23:11:08;;;;;;;2.38;1.00;;;;;;;;;;10410617;28;20123;-73
2024/02/15 23:16:12;;;;;;;1.58;1.08;;;;;;;;;;10392350;28;20688;-73
2024/02/15 23:21:16;;;;;;;1.08;0.75;;;;;;;;;;10411177;28;20607;-73
2024/02/15 23:26:20;;;;;;;1.10;0.88;;;;;;;;;;10422168;28;20122;-73
2024/02/15 23:31:23;;;;;;;1.30;0.98;;;;;;;;;;10414176;28;20045;-73
2024/02/15 23:41:48;;;;;;;2.08;1.08;;;;;;;;;;10408007;28;20410;-72
2024/02/15 23:46:52;;;;;;;1.98;1.33;;;;;;;;;;10421441;28;20557;-73
2024/02/15 23:51:56;;;;;;;1.27;0.88;;;;;;;;;;10410059;28;20049;-73
2024/02/15 23:56:59;;;;;;;1.77;1.02;;;;;;;;;;10408792;28;20525;-73
